»·PEaware :: N364KQ KBLH-KHII

N364KQ :: KBLH-KHII

FLIGHT INFORMATION

Flight Status: Arrived
Operator: Privately registered:
United States
More flights under this callsign
Pilot: Brian K. (18535)
Aircraft: CESSNA 172 SKYHAWK
(C172)
More flights by this aircraft type
Origin: KBLH Blythe
United States
Destination: KHII Lake Havasu City
United States
More flights between these airports :: More routes between these airports
Route:
File this flight plan on PilotEdge
Remarks:
Altitude:
(Current/Filed)
0ft
Speed:
(Current/Filed)
0kts
Departed: 12-Apr-18 07:10 AM
Arrived: 12-Apr-18 07:58 AM
Distance/Time
Traveled:
60nm/0:48
Distance/Time
To Go:
Arrived

Flight Plot

Page will automatically refresh every two minutes.

Flight plan parsing failed; only flown route is shown


Map Options




Map Legend


Flown Route
Filed Route
Departure Airport
Arrival Airport
Navaid (VOR, NDB)
Fix

Horizontal Profiles

Position Reports

Time Latitude Longitude Heading Altitude Ground
Speed
12-Apr-18 07:02 33.614163 -114.714292 359 397ft 0kts
12-Apr-18 07:03 33.614163 -114.714292 359 397ft 0kts
12-Apr-18 07:04 33.614192 -114.714291 2 397ft 1kts
12-Apr-18 07:05 33.615040 -114.712208 89 397ft 14kts
12-Apr-18 07:06 33.615362 -114.706506 63 397ft 6kts
12-Apr-18 07:07 33.615368 -114.706492 62 397ft 0kts
12-Apr-18 07:08 33.616138 -114.706398 332 397ft 7kts
12-Apr-18 07:09 33.616263 -114.722785 266 808ft 72kts
12-Apr-18 07:10 33.604549 -114.726386 99 1560ft 90kts
12-Apr-18 07:11 33.603109 -114.695080 89 2272ft 94kts
12-Apr-18 07:12 33.610263 -114.665927 48 2962ft 93kts
12-Apr-18 07:13 33.628016 -114.642622 41 3491ft 102kts
12-Apr-18 07:14 33.648764 -114.617006 42 3545ft 113kts
12-Apr-18 07:15 33.669375 -114.590883 46 3554ft 106kts
12-Apr-18 07:16 33.688591 -114.563882 45 3529ft 106kts
12-Apr-18 07:17 33.712052 -114.542871 26 3489ft 106kts
12-Apr-18 07:18 33.738060 -114.527413 18 3470ft 105kts
12-Apr-18 07:19 33.765027 -114.514856 15 3458ft 104kts
12-Apr-18 07:20 33.792235 -114.503911 13 3448ft 103kts
12-Apr-18 07:21 33.819686 -114.493516 13 3441ft 103kts
12-Apr-18 07:22 33.846665 -114.482095 20 3435ft 104kts
12-Apr-18 07:23 33.873193 -114.468536 18 3430ft 103kts
12-Apr-18 07:24 33.899893 -114.455965 17 3426ft 103kts
12-Apr-18 07:25 33.926226 -114.443747 18 3437ft 103kts
12-Apr-18 07:26 33.953125 -114.432091 14 3454ft 102kts
12-Apr-18 07:27 33.979799 -114.419431 19 3469ft 103kts
12-Apr-18 07:28 34.005238 -114.407145 11 3494ft 102kts
12-Apr-18 07:29 34.029803 -114.391392 18 3532ft 101kts
12-Apr-18 07:30 34.051441 -114.369061 42 3551ft 107kts
12-Apr-18 07:31 34.069176 -114.341173 43 3557ft 107kts
12-Apr-18 07:32 34.087153 -114.312436 42 3542ft 108kts
12-Apr-18 07:33 34.105635 -114.285079 40 3540ft 107kts
12-Apr-18 07:34 34.124601 -114.257399 41 3546ft 107kts
12-Apr-18 07:35 34.145912 -114.233744 22 3551ft 102kts
12-Apr-18 07:36 34.169806 -114.215481 23 3559ft 102kts
12-Apr-18 07:37 34.191350 -114.192466 39 3565ft 107kts
12-Apr-18 07:38 34.210131 -114.164572 45 3576ft 108kts
12-Apr-18 07:39 34.229461 -114.137514 33 3582ft 105kts
12-Apr-18 07:40 34.251291 -114.114526 29 3588ft 104kts
12-Apr-18 07:41 34.275462 -114.112855 333 3576ft 89kts
12-Apr-18 07:42 34.297665 -114.124781 326 3594ft 87kts
12-Apr-18 07:43 34.318769 -114.139306 326 3588ft 88kts
12-Apr-18 07:44 34.335649 -114.152459 323 3600ft 86kts
12-Apr-18 07:45 34.354768 -114.169654 326 3590ft 86kts
12-Apr-18 07:46 34.377042 -114.184300 326 3582ft 86kts
12-Apr-18 07:47 34.397783 -114.198329 330 3573ft 87kts
12-Apr-18 07:48 34.419468 -114.210976 317 3557ft 86kts
12-Apr-18 07:49 34.434855 -114.232864 307 3552ft 85kts
12-Apr-18 07:50 34.449459 -114.255508 312 3253ft 84kts
12-Apr-18 07:51 34.467142 -114.274746 317 2654ft 85kts
12-Apr-18 07:52 34.481883 -114.289674 321 2159ft 82kts
12-Apr-18 07:53 34.498725 -114.305919 317 1714ft 75kts
12-Apr-18 07:54 34.514589 -114.317897 326 1769ft 62kts
12-Apr-18 07:55 34.529418 -114.328391 328 1759ft 63kts
12-Apr-18 07:56 34.542721 -114.337948 326 1507ft 55kts
12-Apr-18 07:57 34.553600 -114.345961 322 1125ft 38kts
12-Apr-18 07:58 34.561819 -114.351735 329 752ft 21kts
12-Apr-18 07:59 34.565351 -114.354217 328 752ft 14kts
12-Apr-18 08:00 34.568294 -114.358233 255 752ft 13kts
12-Apr-18 08:01 34.569038 -114.359791 266 752ft 6kts
12-Apr-18 08:02 34.569147 -114.360487 6 752ft 6kts
12-Apr-18 08:03 34.569965 -114.360648 67 752ft 0kts
12-Apr-18 08:04 34.569965 -114.360648 66 752ft 0kts
12-Apr-18 08:05 34.569965 -114.360648 64 752ft 0kts

Navigation Log

Ident Type
Flight plan parsing failed, navigation log unavailable